Time;durP1;ratioP1;P1;durP2;ratioP2;P2;SDS_P1;SDS_P2;PMS_P1;PMS_P2;Temp;Humidity;BMP_temperature;BMP_pressure;BME280_temperature;BME280_humidity;BME280_pressure;Samples;Min_cycle;Max_cycle;Signal;HPM_P1;HPM_P2
2021/01/23 00:01:06;;;;;;;3.03;1.90;;;0.70;99.90;;;;;;4965801;28;20271;-75
2021/01/23 00:03:32;;;;;;;2.17;1.67;;;0.70;99.90;;;;;;4964742;28;20189;-76
2021/01/23 00:05:57;;;;;;;3.80;1.93;;;0.70;99.90;;;;;;4965948;28;20189;-75
2021/01/23 00:08:23;;;;;;;2.50;1.53;;;0.70;99.90;;;;;;4964544;28;20195;-75
2021/01/23 00:10:48;;;;;;;2.30;1.77;;;0.70;99.90;;;;;;4965094;28;20204;-75
2021/01/23 00:13:14;;;;;;;2.60;2.10;;;0.80;99.90;;;;;;4965937;28;20216;-75
2021/01/23 00:15:39;;;;;;;2.40;1.77;;;0.80;99.90;;;;;;4965995;28;20212;-76
2021/01/23 00:18:05;;;;;;;1.87;1.63;;;0.80;99.90;;;;;;4965894;28;20185;-75
2021/01/23 00:20:30;;;;;;;2.03;1.40;;;0.70;99.90;;;;;;4965177;28;20224;-76
2021/01/23 00:22:56;;;;;;;2.07;1.63;;;0.70;99.90;;;;;;4965780;28;20724;-75
2021/01/23 00:25:22;;;;;;;1.97;1.67;;;0.60;99.90;;;;;;4964155;28;20197;-75
2021/01/23 00:27:47;;;;;;;1.77;1.67;;;0.60;99.90;;;;;;4965306;28;20195;-75
2021/01/23 00:30:13;;;;;;;2.60;1.50;;;0.60;99.90;;;;;;4965395;28;20200;-75
2021/01/23 00:32:39;;;;;;;2.10;1.50;;;0.60;99.90;;;;;;4963794;28;20213;-75
2021/01/23 00:35:05;;;;;;;1.90;1.70;;;0.50;99.90;;;;;;4964136;28;20239;-75
2021/01/23 00:37:31;;;;;;;2.90;1.83;;;0.50;99.90;;;;;;4965284;28;20236;-75
2021/01/23 00:39:56;;;;;;;2.30;1.77;;;0.50;99.90;;;;;;4964114;28;20217;-75
2021/01/23 00:42:22;;;;;;;2.13;1.43;;;0.50;99.90;;;;;;4962995;28;20189;-75
2021/01/23 00:44:48;;;;;;;2.73;2.10;;;0.60;99.90;;;;;;4961991;28;20191;-75
2021/01/23 00:47:13;;;;;;;2.77;2.00;;;0.60;99.90;;;;;;4965304;28;21287;-75
2021/01/23 00:49:39;;;;;;;1.93;1.83;;;0.60;99.90;;;;;;4964799;28;20299;-75
2021/01/23 00:52:04;;;;;;;1.90;1.67;;;0.60;99.90;;;;;;4965172;28;20561;-75
2021/01/23 00:54:30;;;;;;;2.93;2.40;;;0.70;99.90;;;;;;4963836;28;20200;-75
2021/01/23 00:56:55;;;;;;;2.27;1.80;;;0.60;99.90;;;;;;4963502;28;20619;-76
2021/01/23 00:59:21;;;;;;;2.27;1.83;;;0.70;99.90;;;;;;4963295;28;20216;-76
2021/01/23 01:01:47;;;;;;;2.50;2.20;;;0.70;99.90;;;;;;4965079;28;20267;-75
2021/01/23 01:04:12;;;;;;;2.60;2.10;;;0.70;99.90;;;;;;4964741;28;20654;-75
2021/01/23 01:06:38;;;;;;;2.00;1.80;;;0.70;99.90;;;;;;4965099;28;20592;-75
2021/01/23 01:09:04;;;;;;;1.47;1.37;;;0.70;99.90;;;;;;4964416;28;20201;-75
2021/01/23 01:11:29;;;;;;;2.03;1.83;;;0.70;99.90;;;;;;4962612;28;20655;-75
2021/01/23 01:13:55;;;;;;;1.83;1.73;;;0.70;99.90;;;;;;4962567;28;20196;-76
2021/01/23 01:16:20;;;;;;;2.00;1.37;;;0.80;99.90;;;;;;4962238;28;20184;-75
2021/01/23 01:18:46;;;;;;;2.17;1.80;;;0.80;99.90;;;;;;4964372;28;21222;-75
2021/01/23 01:21:11;;;;;;;2.57;1.67;;;0.80;99.90;;;;;;4964357;28;20713;-75
2021/01/23 01:23:38;;;;;;;2.83;1.80;;;0.70;99.90;;;;;;4963238;28;20195;-75
2021/01/23 01:26:04;;;;;;;2.70;1.90;;;0.70;99.90;;;;;;4964431;28;20711;-75
2021/01/23 01:28:29;;;;;;;3.07;2.23;;;0.70;99.90;;;;;;4964326;28;20181;-75
2021/01/23 01:30:55;;;;;;;2.03;1.80;;;0.70;99.90;;;;;;4964054;28;20196;-75
2021/01/23 01:33:20;;;;;;;2.23;2.03;;;0.70;99.90;;;;;;4963109;28;20678;-75
2021/01/23 01:35:46;;;;;;;1.90;1.60;;;0.70;99.90;;;;;;4964269;28;20264;-75
2021/01/23 01:38:12;;;;;;;1.97;1.77;;;0.70;99.90;;;;;;4963101;28;20181;-75
2021/01/23 01:40:37;;;;;;;2.07;1.60;;;0.70;99.90;;;;;;4964014;28;20693;-75
2021/01/23 01:43:03;;;;;;;2.07;1.70;;;0.70;99.90;;;;;;4964330;28;20181;-76
2021/01/23 01:45:28;;;;;;;1.90;1.40;;;0.70;99.90;;;;;;4964491;28;20193;-75
2021/01/23 01:47:54;;;;;;;3.03;2.13;;;0.80;99.90;;;;;;4963137;28;20569;-75
2021/01/23 01:50:20;;;;;;;2.03;1.87;;;0.80;99.90;;;;;;4964188;28;20224;-75
2021/01/23 01:52:49;;;;;;;1.47;1.37;;;0.70;99.90;;;;;;4964261;28;20181;-75
2021/01/23 01:55:15;;;;;;;1.77;1.50;;;0.70;99.90;;;;;;4964156;28;20664;-75
2021/01/23 01:57:41;;;;;;;1.50;1.40;;;0.70;99.90;;;;;;4964216;28;20197;-75
2021/01/23 02:00:07;;;;;;;2.77;2.37;;;0.70;99.90;;;;;;4964131;28;20236;-75
2021/01/23 02:03:12;;;;;;;1.60;1.50;;;0.90;99.90;;;;;;4964479;28;20548;-75
2021/01/23 02:05:47;;;;;;;2.07;1.80;;;0.80;99.90;;;;;;4964060;28;20690;-75
2021/01/23 02:08:37;;;;;;;2.63;1.67;;;0.80;99.90;;;;;;4966360;28;20192;-75
2021/01/23 02:11:14;;;;;;;2.00;1.60;;;0.80;99.90;;;;;;4966502;28;20208;-76
2021/01/23 02:13:59;;;;;;;3.17;1.80;;;0.80;99.90;;;;;;4967744;28;20180;-75
2021/01/23 02:16:29;;;;;;;2.27;1.33;;;0.80;99.90;;;;;;4967673;28;20240;-76
2021/01/23 02:19:29;;;;;;;2.03;1.33;;;0.80;99.90;;;;;;4966351;28;20631;-75
2021/01/23 02:22:28;;;;;;;2.63;1.97;;;0.70;99.90;;;;;;4967429;28;20192;-75
2021/01/23 02:24:55;;;;;;;2.30;1.97;;;0.70;99.90;;;;;;4966538;28;20181;-75
2021/01/23 02:28:02;;;;;;;2.93;1.93;;;0.60;99.90;;;;;;4967563;28;20185;-75
2021/01/23 02:30:39;;;;;;;1.57;1.30;;;0.60;99.90;;;;;;4967051;28;20216;-75
2021/01/23 02:33:08;;;;;;;2.10;1.87;;;0.70;99.90;;;;;;4967309;28;20177;-75
2021/01/23 02:35:35;;;;;;;1.37;1.27;;;0.70;99.90;;;;;;4966222;28;20564;-76
2021/01/23 02:38:02;;;;;;;2.73;2.07;;;0.80;99.90;;;;;;4967226;28;20661;-75
2021/01/23 02:40:28;;;;;;;2.30;2.10;;;0.80;99.90;;;;;;4965740;28;20211;-75
2021/01/23 02:42:53;;;;;;;2.50;2.00;;;0.80;99.90;;;;;;4967315;28;20204;-75
2021/01/23 02:45:19;;;;;;;1.63;1.53;;;0.80;99.90;;;;;;4967012;28;20283;-75
2021/01/23 02:47:46;;;;;;;2.93;2.17;;;0.80;99.90;;;;;;4966008;28;20184;-75
2021/01/23 02:50:12;;;;;;;1.90;1.43;;;0.80;99.90;;;;;;4966864;28;20213;-75
2021/01/23 02:53:11;;;;;;;3.33;2.40;;;0.70;99.90;;;;;;4966832;28;20211;-75
2021/01/23 02:55:39;;;;;;;3.13;2.00;;;0.70;99.90;;;;;;4967145;28;20189;-75
2021/01/23 02:58:08;;;;;;;4.03;2.77;;;0.70;99.90;;;;;;4967123;28;20213;-76
2021/01/23 03:00:35;;;;;;;2.53;2.13;;;0.70;99.90;;;;;;4967253;28;20274;-75
2021/01/23 03:03:02;;;;;;;2.37;1.97;;;0.70;99.90;;;;;;4966146;28;20192;-75
2021/01/23 03:05:31;;;;;;;2.23;1.47;;;0.70;99.90;;;;;;4967195;28;20185;-75
2021/01/23 03:07:57;;;;;;;2.50;2.30;;;0.80;99.90;;;;;;4966986;28;20272;-76
2021/01/23 03:10:34;;;;;;;2.40;2.20;;;0.80;99.90;;;;;;4966586;28;20644;-75
2021/01/23 03:13:00;;;;;;;2.70;2.47;;;0.80;99.90;;;;;;4965106;28;20604;-76
2021/01/23 03:15:25;;;;;;;2.20;1.80;;;0.80;99.90;;;;;;4965307;28;20252;-75
2021/01/23 03:17:51;;;;;;;3.83;1.93;;;0.80;99.90;;;;;;4966941;28;20185;-75
2021/01/23 03:20:16;;;;;;;2.40;1.73;;;0.80;99.90;;;;;;4963962;28;20244;-75
2021/01/23 03:22:42;;;;;;;3.30;2.10;;;0.80;99.90;;;;;;4966901;28;20858;-75
2021/01/23 03:25:08;;;;;;;2.07;1.87;;;0.80;99.90;;;;;;4966500;28;20189;-75
2021/01/23 03:27:33;;;;;;;1.90;1.70;;;0.90;99.90;;;;;;4966701;28;20547;-75
2021/01/23 03:29:59;;;;;;;2.63;1.83;;;0.90;99.90;;;;;;4964557;28;20220;-75
2021/01/23 03:32:24;;;;;;;3.00;2.27;;;1.00;99.90;;;;;;4966898;28;20177;-75
2021/01/23 03:34:50;;;;;;;2.17;1.47;;;1.00;99.90;;;;;;4966493;28;20281;-75
2021/01/23 03:37:15;;;;;;;2.43;2.23;;;1.00;99.90;;;;;;4966863;28;20188;-76
2021/01/23 03:39:41;;;;;;;3.13;2.13;;;1.00;99.90;;;;;;4964229;28;20216;-75
2021/01/23 03:42:07;;;;;;;3.17;1.90;;;1.00;99.90;;;;;;4964587;28;20186;-75
2021/01/23 03:44:32;;;;;;;2.57;1.97;;;1.00;99.90;;;;;;4964259;28;20727;-75
2021/01/23 03:46:58;;;;;;;3.40;1.90;;;1.00;99.90;;;;;;4965190;28;20183;-75
2021/01/23 03:49:23;;;;;;;2.20;1.97;;;1.00;99.90;;;;;;4964548;28;20215;-75
2021/01/23 03:51:49;;;;;;;2.00;1.60;;;1.00;99.90;;;;;;4966508;28;20184;-75
2021/01/23 03:54:14;;;;;;;2.20;1.70;;;0.90;99.90;;;;;;4966350;28;20192;-75
2021/01/23 03:56:40;;;;;;;2.37;1.93;;;1.00;99.90;;;;;;4966235;28;20251;-75
2021/01/23 03:59:05;;;;;;;1.97;1.73;;;0.90;99.90;;;;;;4966096;28;20185;-75
2021/01/23 04:01:31;;;;;;;2.50;1.97;;;0.90;99.90;;;;;;4966204;28;20215;-76
2021/01/23 04:03:56;;;;;;;3.00;2.13;;;0.90;99.90;;;;;;4966305;28;20195;-75
2021/01/23 04:06:22;;;;;;;2.77;2.00;;;0.90;99.90;;;;;;4965885;28;20207;-75
2021/01/23 04:08:48;;;;;;;2.73;2.00;;;0.90;99.90;;;;;;4966032;28;20259;-75
2021/01/23 04:11:14;;;;;;;2.20;1.60;;;0.90;99.90;;;;;;4964388;28;20232;-75
2021/01/23 04:13:40;;;;;;;3.83;2.43;;;0.80;99.90;;;;;;4965742;28;20185;-75
2021/01/23 04:16:05;;;;;;;2.50;2.03;;;0.80;99.90;;;;;;4965522;28;20529;-75
2021/01/23 04:18:31;;;;;;;2.03;1.80;;;0.70;99.90;;;;;;4965751;28;20192;-75
2021/01/23 04:20:56;;;;;;;2.30;1.93;;;0.70;99.90;;;;;;4965421;28;20196;-75
2021/01/23 04:23:22;;;;;;;1.90;1.50;;;0.70;99.90;;;;;;4964365;28;20248;-75
2021/01/23 04:25:48;;;;;;;3.10;1.63;;;0.70;99.90;;;;;;4965602;28;20188;-75
2021/01/23 04:28:15;;;;;;;2.43;2.10;;;0.70;99.90;;;;;;4965338;28;20185;-75
2021/01/23 04:30:42;;;;;;;2.50;1.83;;;0.70;99.90;;;;;;4963584;28;20223;-75
2021/01/23 04:33:08;;;;;;;3.03;2.43;;;0.80;99.90;;;;;;4965352;28;20191;-75
2021/01/23 04:35:34;;;;;;;3.40;2.83;;;0.80;99.90;;;;;;4965061;28;20216;-75
2021/01/23 04:37:59;;;;;;;2.27;1.80;;;0.80;99.90;;;;;;4963360;28;20284;-75
2021/01/23 04:40:27;;;;;;;3.67;2.17;;;0.80;99.90;;;;;;4963889;28;20240;-76
2021/01/23 04:42:53;;;;;;;1.63;1.10;;;0.80;99.90;;;;;;4965455;28;20181;-75
2021/01/23 04:45:19;;;;;;;2.53;1.73;;;0.80;99.90;;;;;;4965170;28;20193;-75
2021/01/23 04:47:44;;;;;;;3.00;2.23;;;0.90;99.90;;;;;;4965306;28;20659;-75
2021/01/23 04:50:11;;;;;;;3.60;2.37;;;1.00;99.90;;;;;;4963694;28;20216;-75
2021/01/23 04:52:39;;;;;;;2.33;2.13;;;1.00;99.90;;;;;;4965021;28;20810;-75
2021/01/23 04:55:06;;;;;;;2.90;1.70;;;1.00;99.90;;;;;;4963835;28;20181;-75
2021/01/23 04:57:32;;;;;;;3.03;1.90;;;1.00;99.90;;;;;;4964923;28;20751;-75
2021/01/23 04:59:57;;;;;;;4.27;2.47;;;1.00;99.90;;;;;;4964467;28;20205;-75
2021/01/23 05:02:23;;;;;;;2.60;2.10;;;1.00;99.90;;;;;;4965497;28;20268;-75
2021/01/23 05:04:54;;;;;;;2.70;2.10;;;1.00;99.90;;;;;;4964863;28;20639;-75
2021/01/23 05:07:27;;;;;;;1.63;1.53;;;1.00;99.90;;;;;;4963596;28;20243;-75
2021/01/23 05:09:52;;;;;;;2.70;1.93;;;1.00;99.90;;;;;;4964145;28;20212;-75
2021/01/23 05:12:33;;;;;;;2.43;2.10;;;1.00;99.90;;;;;;4965059;28;20196;-75
2021/01/23 05:14:58;;;;;;;2.90;1.77;;;1.00;99.90;;;;;;4964394;28;20671;-75
2021/01/23 05:17:24;;;;;;;3.10;2.13;;;1.00;99.90;;;;;;4964739;28;20195;-75
2021/01/23 05:19:49;;;;;;;2.20;1.73;;;1.00;99.90;;;;;;4964243;28;20264;-75
2021/01/23 05:22:15;;;;;;;2.87;1.93;;;1.00;99.90;;;;;;4963518;28;20181;-75
2021/01/23 05:24:51;;;;;;;3.57;2.40;;;0.90;99.90;;;;;;4964392;28;20275;-75
2021/01/23 05:27:17;;;;;;;2.67;1.93;;;0.90;99.90;;;;;;4963016;28;20203;-75
2021/01/23 05:30:02;;;;;;;3.70;1.83;;;0.90;99.90;;;;;;4964077;28;20264;-75
2021/01/23 05:32:28;;;;;;;5.30;2.57;;;0.90;99.90;;;;;;4964382;28;20615;-75
2021/01/23 05:34:53;;;;;;;2.27;1.80;;;0.90;99.90;;;;;;4963246;28;20192;-75
2021/01/23 05:37:33;;;;;;;3.60;2.23;;;0.90;99.90;;;;;;4964685;28;20175;-76
2021/01/23 05:39:59;;;;;;;2.43;2.20;;;1.00;99.90;;;;;;4963041;28;20815;-75
2021/01/23 05:42:25;;;;;;;1.80;1.50;;;1.00;99.90;;;;;;4965109;28;20189;-75
2021/01/23 05:45:13;;;;;;;2.33;2.00;;;1.00;99.90;;;;;;4968515;28;20188;-75
2021/01/23 05:47:40;;;;;;;3.33;2.53;;;1.10;99.90;;;;;;4967007;28;20192;-75
2021/01/23 05:50:08;;;;;;;3.00;2.40;;;1.10;99.90;;;;;;4967811;28;20244;-76
2021/01/23 05:52:34;;;;;;;4.23;2.40;;;1.10;99.90;;;;;;4967036;28;20272;-75
2021/01/23 05:55:01;;;;;;;2.07;1.83;;;1.10;99.90;;;;;;4968269;28;20239;-75
2021/01/23 05:57:28;;;;;;;2.13;1.77;;;1.10;99.90;;;;;;4966934;28;20188;-75
2021/01/23 05:59:54;;;;;;;2.27;1.77;;;1.20;99.90;;;;;;4967796;28;20208;-75
2021/01/23 06:02:22;;;;;;;3.20;2.40;;;1.20;99.90;;;;;;4968020;28;20199;-75
2021/01/23 06:04:49;;;;;;;1.80;1.70;;;1.20;99.90;;;;;;4968267;28;20530;-75
2021/01/23 06:07:40;;;;;;;3.27;2.00;;;1.20;99.90;;;;;;4967075;28;20558;-75
2021/01/23 06:10:26;;;;;;;3.57;2.57;;;1.20;99.90;;;;;;4967630;28;20299;-76
2021/01/23 06:12:55;;;;;;;2.90;2.60;;;1.30;99.90;;;;;;4959823;28;20185;-75
2021/01/23 06:15:35;;;;;;;2.50;2.10;;;1.30;99.90;;;;;;4966739;28;20263;-76
2021/01/23 06:18:07;;;;;;;2.83;2.03;;;1.30;99.90;;;;;;4967833;28;20223;-75
2021/01/23 06:20:41;;;;;;;2.63;2.13;;;1.30;99.90;;;;;;4967363;28;20204;-75
2021/01/23 06:23:07;;;;;;;3.47;2.63;;;1.30;99.90;;;;;;4966486;28;20677;-76
2021/01/23 06:25:56;;;;;;;3.10;2.37;;;1.40;99.90;;;;;;4967975;28;20185;-75
2021/01/23 06:28:21;;;;;;;4.30;2.87;;;1.40;99.90;;;;;;4966624;28;20235;-76
2021/01/23 06:30:47;;;;;;;3.13;2.07;;;1.30;99.90;;;;;;4965933;28;20213;-76
2021/01/23 06:33:31;;;;;;;2.70;2.07;;;1.30;99.90;;;;;;4966052;28;20192;-75
2021/01/23 06:36:06;;;;;;;3.17;2.30;;;1.30;99.90;;;;;;4966210;28;20272;-75
2021/01/23 06:38:32;;;;;;;3.40;2.83;;;1.30;99.90;;;;;;4966435;28;20188;-76
2021/01/23 06:41:33;;;;;;;3.73;2.67;;;1.40;99.90;;;;;;4967463;28;20569;-75
2021/01/23 06:44:15;;;;;;;3.17;2.50;;;1.40;99.90;;;;;;4968166;28;20177;-76
2021/01/23 06:46:48;;;;;;;4.20;2.90;;;1.40;99.90;;;;;;4967606;28;20189;-75
2021/01/23 06:49:14;;;;;;;3.33;2.30;;;1.40;99.90;;;;;;4966885;28;20205;-75
2021/01/23 06:51:40;;;;;;;3.10;2.27;;;1.40;99.90;;;;;;4966288;28;20550;-76
2021/01/23 06:54:17;;;;;;;2.80;2.20;;;1.40;99.90;;;;;;4967926;28;20604;-76
2021/01/23 06:56:53;;;;;;;3.07;2.47;;;1.40;99.90;;;;;;4966348;28;20829;-75
2021/01/23 06:59:32;;;;;;;2.60;1.83;;;1.50;99.90;;;;;;4966206;28;20195;-75
2021/01/23 07:02:03;;;;;;;2.87;2.10;;;1.40;99.90;;;;;;4966483;28;20267;-75
2021/01/23 07:04:32;;;;;;;2.50;2.23;;;1.40;99.90;;;;;;4961325;28;20585;-75
2021/01/23 07:06:58;;;;;;;3.07;2.40;;;1.30;99.90;;;;;;4966649;28;20208;-76
2021/01/23 07:09:47;;;;;;;4.17;3.03;;;1.30;99.90;;;;;;4964814;28;20209;-75
2021/01/23 07:12:32;;;;;;;3.07;2.10;;;1.30;99.90;;;;;;4966792;28;20297;-75
2021/01/23 07:14:58;;;;;;;6.53;3.57;;;1.30;99.90;;;;;;4965681;28;20246;-75
2021/01/23 07:17:24;;;;;;;2.97;2.23;;;1.30;99.90;;;;;;4967068;28;20595;-75
2021/01/23 07:19:49;;;;;;;3.40;2.10;;;1.30;99.90;;;;;;4966782;28;20205;-75
2021/01/23 07:22:15;;;;;;;3.93;2.63;;;1.30;99.90;;;;;;4967362;28;20677;-75
2021/01/23 07:24:40;;;;;;;3.33;2.37;;;1.30;99.90;;;;;;4966823;28;20189;-75
2021/01/23 07:27:06;;;;;;;4.57;3.50;;;1.30;99.90;;;;;;4967123;28;20565;-75
2021/01/23 07:29:32;;;;;;;3.23;2.93;;;1.30;99.90;;;;;;4966617;28;20224;-76
2021/01/23 07:31:58;;;;;;;3.40;2.33;;;1.40;99.90;;;;;;4967268;28;20189;-75
2021/01/23 07:34:23;;;;;;;3.60;3.13;;;1.50;99.90;;;;;;4966782;28;20212;-75
2021/01/23 07:36:49;;;;;;;3.80;2.87;;;1.50;99.90;;;;;;4967308;28;20185;-76
2021/01/23 07:39:17;;;;;;;3.33;2.67;;;1.50;99.90;;;;;;4966601;28;20185;-75
2021/01/23 07:41:55;;;;;;;3.67;2.53;;;1.50;99.90;;;;;;4966951;28;20239;-75
2021/01/23 07:44:24;;;;;;;6.20;3.60;;;1.50;99.90;;;;;;4966992;28;20276;-76
2021/01/23 07:46:51;;;;;;;3.77;2.53;;;1.60;99.90;;;;;;4966638;28;20247;-75
2021/01/23 07:49:24;;;;;;;5.67;2.50;;;1.60;99.90;;;;;;4966777;28;20675;-75
2021/01/23 07:51:51;;;;;;;6.27;4.60;;;1.60;99.90;;;;;;4967070;28;20272;-75
2021/01/23 07:54:18;;;;;;;5.17;4.40;;;1.50;99.90;;;;;;4966553;28;20276;-75
2021/01/23 07:56:56;;;;;;;3.87;2.53;;;1.60;99.90;;;;;;4964789;28;20581;-76
2021/01/23 07:59:40;;;;;;;3.13;2.67;;;1.70;99.90;;;;;;4965618;28;20596;-76
2021/01/23 08:02:05;;;;;;;2.90;2.60;;;1.60;99.90;;;;;;4963724;28;20213;-75
2021/01/23 08:04:32;;;;;;;4.10;2.77;;;1.60;99.90;;;;;;4963975;28;20220;-76
2021/01/23 08:07:17;;;;;;;5.83;3.90;;;1.60;99.90;;;;;;4964687;28;20177;-75
2021/01/23 08:09:43;;;;;;;4.67;2.63;;;1.60;99.90;;;;;;4963773;28;20703;-75
2021/01/23 08:12:19;;;;;;;3.47;2.83;;;1.60;99.90;;;;;;4965660;28;20181;-76
2021/01/23 08:14:52;;;;;;;3.90;2.90;;;1.60;99.90;;;;;;4961786;28;20196;-76
2021/01/23 08:17:18;;;;;;;3.33;2.57;;;1.70;99.90;;;;;;4965109;28;20235;-76
2021/01/23 08:19:51;;;;;;;5.77;3.93;;;1.70;99.90;;;;;;4965046;28;20204;-76
2021/01/23 08:22:16;;;;;;;6.00;3.23;;;1.70;99.90;;;;;;4964652;28;20227;-75
2021/01/23 08:24:42;;;;;;;4.43;3.67;;;1.80;99.90;;;;;;4964255;28;20826;-75
2021/01/23 08:27:19;;;;;;;3.17;2.67;;;1.90;99.90;;;;;;4963622;28;20185;-75
2021/01/23 08:29:51;;;;;;;3.97;2.80;;;1.90;99.90;;;;;;4963468;28;20282;-76
2021/01/23 08:32:18;;;;;;;6.50;4.30;;;1.90;99.90;;;;;;4963980;28;20204;-76
2021/01/23 08:34:45;;;;;;;7.07;4.40;;;2.00;99.90;;;;;;4965604;28;20183;-76
2021/01/23 08:37:11;;;;;;;4.53;3.27;;;2.00;99.90;;;;;;4966301;28;20817;-75
2021/01/23 08:39:55;;;;;;;6.47;3.77;;;2.00;99.90;;;;;;4965217;28;20296;-76
2021/01/23 08:42:24;;;;;;;4.67;3.70;;;2.10;99.90;;;;;;4964684;28;20205;-76
2021/01/23 08:44:50;;;;;;;6.00;3.83;;;2.10;99.90;;;;;;4964519;28;20181;-75
2021/01/23 08:47:16;;;;;;;5.57;4.03;;;2.20;99.90;;;;;;4965531;28;20204;-76
2021/01/23 08:49:41;;;;;;;5.33;3.70;;;2.20;99.90;;;;;;4959717;28;20225;-75
2021/01/23 08:52:09;;;;;;;5.47;4.60;;;2.30;99.90;;;;;;4964332;28;20173;-75
2021/01/23 08:54:34;;;;;;;4.77;3.33;;;2.30;99.90;;;;;;4964328;28;20180;-75
2021/01/23 08:57:00;;;;;;;3.80;3.03;;;2.30;99.90;;;;;;4964291;28;20184;-75
2021/01/23 08:59:26;;;;;;;4.17;3.37;;;2.30;99.90;;;;;;4962271;28;20192;-76
2021/01/23 09:01:51;;;;;;;5.53;4.00;;;2.40;99.90;;;;;;4964713;28;20181;-75
2021/01/23 09:04:17;;;;;;;4.00;3.00;;;2.50;99.90;;;;;;4963816;28;20220;-75
2021/01/23 09:06:44;;;;;;;3.10;2.73;;;2.50;99.90;;;;;;4964622;28;20193;-75
2021/01/23 09:09:10;;;;;;;4.53;3.13;;;2.50;99.90;;;;;;4962515;28;20212;-75
2021/01/23 09:11:37;;;;;;;4.23;3.07;;;2.60;99.90;;;;;;4964446;28;20229;-75
2021/01/23 09:14:04;;;;;;;4.63;3.13;;;2.60;99.90;;;;;;4964247;28;20224;-76
2021/01/23 09:16:29;;;;;;;4.73;3.50;;;2.60;99.90;;;;;;4963911;28;20177;-75
2021/01/23 09:18:55;;;;;;;5.67;3.83;;;2.60;99.90;;;;;;4962705;28;20189;-75
2021/01/23 09:21:21;;;;;;;5.07;3.80;;;2.70;99.90;;;;;;4962255;28;20204;-75
2021/01/23 09:23:46;;;;;;;4.00;3.60;;;2.70;99.90;;;;;;4963852;28;20653;-75
2021/01/23 09:26:12;;;;;;;7.53;4.73;;;2.70;99.90;;;;;;4964091;28;20177;-75
2021/01/23 09:28:37;;;;;;;3.87;2.73;;;2.70;99.90;;;;;;4963981;28;20218;-75
2021/01/23 09:31:03;;;;;;;3.20;2.67;;;2.70;99.90;;;;;;4962976;28;20251;-75
2021/01/23 09:33:29;;;;;;;4.33;2.90;;;2.70;99.90;;;;;;4963327;28;20188;-75
2021/01/23 09:35:55;;;;;;;4.47;2.70;;;2.80;99.90;;;;;;4963477;28;20184;-75
2021/01/23 09:38:21;;;;;;;4.10;3.33;;;2.80;99.90;;;;;;4963626;28;20196;-75
2021/01/23 09:40:47;;;;;;;4.20;2.70;;;2.80;99.90;;;;;;4961414;28;20205;-75
2021/01/23 09:43:12;;;;;;;5.50;3.27;;;2.90;99.90;;;;;;4963785;28;20188;-75
2021/01/23 09:45:38;;;;;;;4.13;2.90;;;2.90;99.90;;;;;;4963312;28;20193;-75
2021/01/23 09:48:04;;;;;;;4.40;3.63;;;2.80;99.90;;;;;;4959908;28;20643;-75
2021/01/23 09:50:30;;;;;;;4.63;3.47;;;2.90;99.90;;;;;;4958638;28;20217;-74
2021/01/23 09:52:56;;;;;;;5.23;4.00;;;2.90;99.90;;;;;;4960715;28;20638;-74
2021/01/23 09:55:22;;;;;;;7.13;4.57;;;2.90;99.90;;;;;;4956768;28;20189;-74
2021/01/23 09:57:47;;;;;;;4.57;3.80;;;2.90;99.90;;;;;;4960146;28;20236;-74
2021/01/23 10:00:15;;;;;;;8.30;3.33;;;2.90;99.90;;;;;;4960318;28;20207;-75
2021/01/23 10:02:41;;;;;;;4.50;2.97;;;3.00;99.90;;;;;;4962107;28;20223;-74
2021/01/23 10:05:07;;;;;;;2.80;2.50;;;3.00;99.90;;;;;;4962322;28;20640;-74
2021/01/23 10:07:33;;;;;;;11.97;4.47;;;3.10;99.90;;;;;;4958310;28;20197;-75
2021/01/23 10:09:59;;;;;;;4.37;3.07;;;3.10;99.90;;;;;;4958664;28;20215;-74
2021/01/23 10:12:28;;;;;;;4.07;3.10;;;3.10;99.90;;;;;;4959819;28;20189;-75
2021/01/23 10:14:54;;;;;;;4.53;3.67;;;3.10;99.90;;;;;;4958403;28;20279;-73
2021/01/23 10:17:20;;;;;;;6.40;4.43;;;3.10;99.90;;;;;;4960100;28;20288;-75
2021/01/23 10:19:45;;;;;;;4.40;3.30;;;3.20;99.90;;;;;;4959759;28;20216;-75
2021/01/23 10:22:11;;;;;;;5.37;3.43;;;3.30;99.90;;;;;;4959732;28;20239;-74
2021/01/23 10:24:36;;;;;;;4.77;3.33;;;3.40;99.90;;;;;;4960393;28;20185;-75
2021/01/23 10:27:03;;;;;;;6.47;4.33;;;3.40;99.90;;;;;;4958647;28;20197;-75
2021/01/23 10:29:28;;;;;;;4.73;3.33;;;3.50;99.90;;;;;;4961869;28;20205;-75
2021/01/23 10:31:54;;;;;;;3.43;3.00;;;3.60;99.90;;;;;;4964576;28;20189;-75
2021/01/23 10:34:20;;;;;;;6.83;4.10;;;3.70;99.90;;;;;;4963990;28;20288;-74
2021/01/23 10:36:45;;;;;;;4.07;3.23;;;3.70;99.90;;;;;;4963504;28;20572;-74
2021/01/23 10:39:11;;;;;;;4.83;3.83;;;3.70;99.90;;;;;;4963028;28;20557;-74
2021/01/23 10:41:36;;;;;;;4.20;3.37;;;3.70;99.90;;;;;;4963844;28;20292;-75
2021/01/23 10:44:02;;;;;;;4.67;3.60;;;3.70;99.90;;;;;;4962511;28;20215;-75
2021/01/23 10:46:28;;;;;;;5.00;3.77;;;3.80;99.90;;;;;;4963268;28;20188;-74
2021/01/23 10:48:54;;;;;;;3.83;3.13;;;4.00;99.90;;;;;;4962847;28;20251;-75
2021/01/23 10:51:19;;;;;;;4.47;3.47;;;4.00;99.90;;;;;;4962760;28;20284;-75
2021/01/23 10:53:48;;;;;;;7.27;3.70;;;4.10;99.90;;;;;;4963671;28;20268;-74
2021/01/23 10:56:14;;;;;;;5.70;3.67;;;4.10;99.90;;;;;;4963222;28;20240;-74
2021/01/23 10:58:41;;;;;;;5.23;3.40;;;4.20;99.90;;;;;;4963115;28;20191;-74
2021/01/23 11:01:06;;;;;;;5.67;3.17;;;4.20;99.90;;;;;;4963166;28;20201;-73
2021/01/23 11:03:32;;;;;;;5.03;3.10;;;4.30;99.90;;;;;;4963535;28;20181;-74
2021/01/23 11:05:58;;;;;;;6.00;3.40;;;4.40;99.90;;;;;;4962892;28;20181;-75
2021/01/23 11:08:25;;;;;;;5.33;3.67;;;4.50;99.90;;;;;;4962958;28;20215;-74
2021/01/23 11:10:51;;;;;;;4.53;3.10;;;4.50;99.90;;;;;;4962926;28;20304;-75
2021/01/23 11:13:17;;;;;;;3.93;2.63;;;4.60;99.90;;;;;;4963597;28;20181;-78
2021/01/23 11:15:42;;;;;;;4.13;3.13;;;4.60;99.90;;;;;;4960311;28;20224;-74
2021/01/23 11:18:08;;;;;;;4.73;3.57;;;4.70;99.90;;;;;;4960489;28;20248;-75
2021/01/23 11:20:34;;;;;;;3.47;2.93;;;4.80;99.90;;;;;;4961240;28;20201;-74
2021/01/23 11:23:00;;;;;;;3.07;2.30;;;4.80;99.90;;;;;;4964338;28;21344;-75
2021/01/23 11:25:27;;;;;;;4.03;3.43;;;4.90;99.90;;;;;;4962943;28;20272;-74
2021/01/23 11:27:54;;;;;;;4.00;2.70;;;4.80;99.90;;;;;;4964212;28;20243;-75
2021/01/23 11:30:21;;;;;;;5.07;3.33;;;4.80;99.90;;;;;;4962166;28;20330;-75
2021/01/23 11:32:46;;;;;;;4.90;3.27;;;4.80;99.90;;;;;;4964040;28;20598;-75
2021/01/23 11:35:12;;;;;;;5.97;3.10;;;4.80;99.90;;;;;;4964227;28;20192;-75
2021/01/23 11:37:38;;;;;;;6.70;3.97;;;4.80;99.90;;;;;;4962500;28;20184;-75
2021/01/23 11:40:05;;;;;;;3.97;3.13;;;4.80;99.90;;;;;;4961753;28;20312;-76
2021/01/23 11:42:31;;;;;;;5.00;3.83;;;4.90;99.90;;;;;;4964585;28;20324;-75
2021/01/23 11:44:56;;;;;;;6.67;4.90;;;4.80;99.90;;;;;;4962895;28;20267;-76
2021/01/23 11:47:22;;;;;;;5.53;3.97;;;4.90;99.90;;;;;;4962870;28;20328;-75
2021/01/23 11:49:48;;;;;;;4.03;2.90;;;4.90;99.90;;;;;;4962343;28;20212;-75
2021/01/23 11:52:13;;;;;;;4.63;3.43;;;4.90;99.90;;;;;;4964162;28;20185;-75
2021/01/23 11:54:39;;;;;;;4.57;3.13;;;5.00;99.90;;;;;;4964155;28;20187;-75
2021/01/23 11:57:08;;;;;;;5.03;3.50;;;5.00;99.90;;;;;;4964915;28;20188;-75
2021/01/23 11:59:33;;;;;;;3.30;3.00;;;5.10;99.90;;;;;;4964775;28;20177;-75
2021/01/23 12:01:59;;;;;;;6.80;4.07;;;5.10;99.90;;;;;;4966162;28;20204;-76
2021/01/23 12:04:24;;;;;;;10.87;7.73;;;5.20;99.90;;;;;;4966101;28;20193;-76
2021/01/23 12:06:50;;;;;;;4.53;3.27;;;5.20;99.90;;;;;;4965279;28;20616;-75
2021/01/23 12:09:16;;;;;;;4.47;3.77;;;5.30;99.90;;;;;;4965373;28;20215;-75
2021/01/23 12:11:41;;;;;;;5.47;4.07;;;5.20;99.90;;;;;;4964116;28;20240;-75
2021/01/23 12:14:07;;;;;;;7.63;4.27;;;5.20;99.90;;;;;;4963492;28;20196;-75
2021/01/23 12:16:32;;;;;;;5.80;3.60;;;5.30;99.90;;;;;;4963470;28;20268;-75
2021/01/23 12:18:58;;;;;;;4.93;3.93;;;5.40;99.90;;;;;;4962435;28;20173;-75
2021/01/23 12:21:25;;;;;;;4.60;3.40;;;5.40;99.90;;;;;;4963611;28;20283;-76
2021/01/23 12:23:50;;;;;;;4.77;3.50;;;5.50;99.90;;;;;;4963444;28;20814;-75
2021/01/23 12:26:16;;;;;;;3.93;2.80;;;5.40;99.90;;;;;;4963671;28;20263;-75
2021/01/23 12:28:41;;;;;;;3.73;3.23;;;5.40;99.90;;;;;;4961825;28;20669;-75
2021/01/23 12:31:07;;;;;;;4.20;2.73;;;5.30;99.90;;;;;;4962144;28;20240;-75
2021/01/23 12:33:33;;;;;;;5.03;3.30;;;5.40;99.90;;;;;;4963366;28;20200;-76
2021/01/23 12:35:58;;;;;;;5.23;3.43;;;5.30;99.90;;;;;;4963688;28;20185;-75
2021/01/23 12:38:24;;;;;;;9.27;5.80;;;5.40;99.90;;;;;;4962008;28;20203;-75
2021/01/23 12:40:49;;;;;;;7.20;4.07;;;5.40;99.90;;;;;;4961762;28;20251;-76
2021/01/23 12:43:15;;;;;;;3.97;3.03;;;5.40;99.90;;;;;;4963241;28;20398;-75
2021/01/23 12:45:40;;;;;;;4.10;2.83;;;5.40;99.90;;;;;;4963891;28;20196;-76
2021/01/23 12:48:06;;;;;;;2.53;2.17;;;5.40;99.90;;;;;;4963338;28;20195;-75
2021/01/23 12:50:32;;;;;;;3.97;2.67;;;5.40;99.90;;;;;;4961663;28;20220;-75
2021/01/23 12:52:57;;;;;;;2.63;2.37;;;5.40;99.90;;;;;;4963339;28;20177;-75
2021/01/23 12:55:23;;;;;;;3.00;2.63;;;5.50;99.90;;;;;;4963503;28;20184;-76
2021/01/23 12:57:49;;;;;;;2.20;1.60;;;5.50;99.90;;;;;;4962861;28;20173;-75
2021/01/23 13:00:17;;;;;;;2.50;1.80;;;5.60;99.90;;;;;;4963137;28;20226;-75
2021/01/23 13:02:42;;;;;;;3.57;2.27;;;5.60;99.90;;;;;;4963193;28;20463;-76